This is the latest recevied weather packets stored in our database for station/object N9BLE. If no packets are shown the sender has not sent any weather packets the latest 10 day(s).
| Time | Temp. | Humidity | Pressure | Rain* | Wind** | Luminosity | Snow |
|---|---|---|---|---|---|---|---|
| 1777913576 | 23.33° C | 40% | 1004.9 hPa | 0 mm | - | 108 W/m² | - |
| 1777913272 | 23.33° C | 44% | 1005.2 hPa | 0 mm | - | 67 W/m² | - |
| 1777912970 | 23.33° C | 38% | 1005.1 hPa | 0 mm | - | 163 W/m² | - |
| 1777912666 | 22.78° C | 41% | 1005.3 hPa | 0 mm | - | 112 W/m² | - |
| 1777912362 | 22.78° C | 39% | 1005.2 hPa | 0 mm | - | 122 W/m² | - |
| 1777912058 | 22.78° C | 43% | 1005.2 hPa | 0 mm | - | 62 W/m² | - |
| 1777911754 | 22.78° C | 42% | 1005.4 hPa | 0 mm | - | 76 W/m² | - |
| 1777911451 | 22.22° C | 45% | 1005.6 hPa | 0 mm | - | 63 W/m² | - |
| 1777911148 | 22.22° C | 43% | 1005.7 hPa | 0 mm | - | 244 W/m² | - |
| 1777910846 | 21.67° C | 45% | 1005.6 hPa | 0 mm | - | 70 W/m² | - |
| 1777910542 | 21.67° C | 45% | 1005.8 hPa | 0 mm | - | 223 W/m² | - |
| 1777910239 | 21.11° C | 47% | 1005.9 hPa | 0 mm | - | 88 W/m² | - |
| 1777909936 | 21.11° C | 42% | 1005.8 hPa | 0 mm | - | 75 W/m² | - |
| 1777909633 | 21.11° C | 46% | 1006 hPa | 0 mm | - | 62 W/m² | - |
| 1777909330 | 20.56° C | 46% | 1006.1 hPa | 0 mm | - | 56 W/m² | - |
| 1777909028 | 20.56° C | 47% | 1006 hPa | 0 mm | - | 224 W/m² | - |
| 1777908726 | 20.56° C | 46% | 1005.9 hPa | 0 mm | - | 458 W/m² | - |
| 1777908423 | 20° C | 49% | 1006.2 hPa | 0 mm | - | 91 W/m² | - |
| 1777908119 | 20° C | 50% | 1006.3 hPa | 0 mm | - | 111 W/m² | - |
| 1777907815 | 20° C | 49% | 1006.2 hPa | 0 mm | - | 54 W/m² | - |
| 1777907516 | 19.44° C | 51% | 1006.4 hPa | 0 mm | - | 50 W/m² | - |
| 1777907213 | 19.44° C | 50% | 1006.5 hPa | 0 mm | - | 50 W/m² | - |
| 1777906910 | 18.89° C | 50% | 1006.5 hPa | 0 mm | - | 178 W/m² | - |
| 1777906607 | 18.89° C | 52% | 1006.5 hPa | 0 mm | - | 228 W/m² | - |
| 1777906302 | 18.89° C | 52% | 1006.5 hPa | 0 mm | - | 57 W/m² | - |
* Rain latest hour (hover to see other rain measurements)
** Current wind speed in m/s (hover to see current wind gust speed)